Time;durP1;ratioP1;P1;durP2;ratioP2;P2;SDS_P1;SDS_P2;PMS_P1;PMS_P2;Temp;Humidity;BMP_temperature;BMP_pressure;BME280_temperature;BME280_humidity;BME280_pressure;Samples;Min_cycle;Max_cycle;Signal;HPM_P1;HPM_P2
2023/07/11 00:04:43;;;;;;;13.90;8.00;;;;;;;22.52;60.92;98941.92;223733;181;139419;-64
2023/07/11 00:09:47;;;;;;;11.50;7.40;;;;;;;22.53;60.78;98936.70;223752;182;138020;-63
2023/07/11 00:14:50;;;;;;;9.80;7.80;;;;;;;22.52;61.08;98935.05;223655;181;145693;-66
2023/07/11 00:19:56;;;;;;;9.60;7.30;;;;;;;22.52;61.45;98928.13;223605;181;139151;-63
2023/07/11 00:24:59;;;;;;;10.30;7.60;;;;;;;22.52;61.81;98928.05;223735;181;137837;-62
2023/07/11 00:30:04;;;;;;;14.00;7.50;;;;;;;22.52;62.12;98927.28;223772;181;145684;-66
2023/07/11 00:35:08;;;;;;;;;;;;;;;22.52;62.38;98917.34;223794;181;138218;-64
2023/07/11 00:40:14;;;;;;;10.90;8.00;;;;;;;22.45;62.77;98910.31;223692;181;130189;-65
2023/07/11 00:45:55;;;;;;;9.60;7.50;;;;;;;22.40;63.36;98920.64;223189;181;145751;-64
2023/07/11 00:50:59;;;;;;;14.20;8.20;;;;;;;22.37;63.65;98933.09;221087;181;138961;-66
2023/07/11 00:56:07;;;;;;;14.70;8.40;;;;;;;22.33;64.18;98925.23;223600;181;136952;-64
2023/07/11 01:01:12;;;;;;;12.80;7.80;;;;;;;22.33;64.51;98918.01;223653;181;146678;-65
2023/07/11 01:06:20;;;;;;;13.60;8.60;;;;;;;22.38;64.46;98919.84;223719;182;138381;-65
2023/07/11 01:11:26;;;;;;;11.20;8.20;;;;;;;22.42;64.72;98925.27;223752;181;137130;-64
2023/07/11 01:16:29;;;;;;;14.20;7.70;;;;;;;22.43;65.04;98921.71;223726;181;147209;-64
2023/07/11 01:21:32;;;;;;;11.10;8.10;;;;;;;22.42;64.98;98925.98;223733;181;138649;-64
2023/07/11 01:26:35;;;;;;;10.50;7.90;;;;;;;22.42;64.92;98921.83;223720;182;137437;-63
2023/07/11 01:31:39;;;;;;;12.10;8.20;;;;;;;22.40;65.26;98907.99;223655;181;145298;-64
2023/07/11 01:36:43;;;;;;;13.00;8.70;;;;;;;22.36;65.39;98910.83;223760;181;138478;-64
2023/07/11 01:41:46;;;;;;;11.60;8.10;;;;;;;22.31;65.96;98915.73;223703;181;136989;-64
2023/07/11 01:46:50;;;;;;;10.70;7.50;;;;;;;22.24;66.11;98914.84;223670;181;145629;-64
2023/07/11 01:52:09;;;;;;;13.90;8.60;;;;;;;22.25;66.31;98915.32;223742;181;139853;-63
2023/07/11 01:57:14;;;;;;;11.80;7.30;;;;;;;22.26;66.14;98918.27;223737;182;140184;-64
2023/07/11 02:02:18;;;;;;;11.40;8.20;;;;;;;22.22;66.33;98919.94;223585;181;146130;-63
2023/07/11 02:07:21;;;;;;;12.70;7.70;;;;;;;22.18;66.47;98923.13;223640;181;138681;-64
2023/07/11 02:12:24;;;;;;;11.10;8.40;;;;;;;22.13;66.74;98924.26;223768;181;136530;-66
2023/07/11 02:17:28;;;;;;;11.00;7.70;;;;;;;22.14;66.81;98931.88;223709;181;145874;-65
2023/07/11 02:22:31;;;;;;;12.10;8.10;;;;;;;22.14;67.06;98936.78;223739;181;138817;-62
2023/07/11 02:27:34;;;;;;;17.30;7.90;;;;;;;22.14;66.95;98936.00;223509;181;136834;-65
2023/07/11 02:32:39;;;;;;;13.30;8.10;;;;;;;22.17;66.97;98951.05;223709;181;145721;-63
2023/07/11 02:37:42;;;;;;;17.40;8.40;;;;;;;22.10;67.05;98955.05;223721;181;139991;-63
2023/07/11 02:42:45;;;;;;;10.40;7.40;;;;;;;22.02;67.15;98960.73;223722;181;137004;-64
2023/07/11 02:47:57;;;;;;;16.10;7.60;;;;;;;21.97;67.26;98959.77;223705;181;145063;-65
2023/07/11 05:05:35;;;;;;;9.40;6.30;;;;;;;21.46;65.21;99023.47;222012;193;666146;-67
2023/07/11 05:10:38;;;;;;;8.30;6.50;;;;;;;21.51;65.15;99028.09;223636;183;137433;-65
2023/07/11 05:15:41;;;;;;;10.30;5.60;;;;;;;21.53;65.09;99040.32;223711;183;143663;-65
2023/07/11 05:21:03;;;;;;;9.40;6.30;;;;;;;21.59;64.40;99041.08;223598;183;275732;-65
2023/07/11 05:26:07;;;;;;;8.30;5.80;;;;;;;21.61;64.37;99041.73;223626;183;136751;-65
2023/07/11 05:31:11;;;;;;;12.20;6.40;;;;;;;21.64;63.97;99041.54;223952;180;144500;-66
2023/07/11 05:41:28;;;;;;;52.00;43.20;;;;;;;21.70;63.50;99040.20;223940;180;135945;-65
2023/07/11 05:46:31;;;;;;;10.60;7.50;;;;;;;21.69;63.66;99039.04;223863;180;143293;-65
2023/07/11 05:51:35;;;;;;;10.30;6.30;;;;;;;21.71;63.16;99039.44;223897;181;138382;-63
2023/07/11 05:56:40;;;;;;;9.20;5.80;;;;;;;21.76;63.03;99038.50;223842;181;137760;-63
2023/07/11 06:01:44;;;;;;;8.30;5.60;;;;;;;21.76;62.77;99041.58;223699;181;145180;-63
2023/07/11 06:06:49;;;;;;;8.10;5.90;;;;;;;21.74;62.48;99045.55;223836;180;138161;-65
2023/07/11 06:11:52;;;;;;;8.60;5.80;;;;;;;21.71;62.64;99047.75;223720;180;136426;-63
2023/07/11 06:16:55;;;;;;;11.80;6.40;;;;;;;21.74;62.79;99046.30;223712;181;145552;-63
2023/07/11 06:21:59;;;;;;;10.50;5.70;;;;;;;21.87;62.33;99043.68;223734;181;138697;-64
2023/07/11 06:27:03;;;;;;;6.60;4.80;;;;;;;21.97;61.87;99044.73;223779;181;137046;-64
2023/07/11 06:32:07;;;;;;;9.60;5.50;;;;;;;22.01;61.37;99045.75;223705;181;147735;-63
2023/07/11 06:37:11;;;;;;;7.70;4.90;;;;;;;22.09;61.19;99042.51;223753;181;138447;-64
2023/07/11 06:42:15;;;;;;;12.30;8.10;;;;;;;22.12;60.63;99048.61;223834;181;137554;-65
2023/07/11 06:47:19;;;;;;;7.90;5.40;;;;;;;22.15;60.68;99048.91;223729;181;145391;-63
2023/07/11 06:52:22;;;;;;;8.40;5.70;;;;;;;22.28;60.67;99041.73;223600;181;138894;-64
2023/07/11 06:57:25;;;;;;;12.10;5.20;;;;;;;22.39;59.90;99039.52;223680;180;139562;-63
2023/07/11 07:02:28;;;;;;;10.00;5.60;;;;;;;22.45;59.14;99035.24;223787;181;145373;-64
2023/07/11 07:07:32;;;;;;;9.80;4.90;;;;;;;22.52;58.94;99033.55;223525;181;138857;-63
2023/07/11 07:12:35;;;;;;;11.80;5.20;;;;;;;22.60;58.26;99032.84;223686;180;137255;-62
2023/07/11 07:17:38;;;;;;;12.60;6.90;;;;;;;22.68;58.28;99037.55;223622;180;145469;-63
2023/07/11 07:22:41;;;;;;;9.40;5.40;;;;;;;22.73;58.04;99035.16;223650;181;138425;-62
2023/07/11 07:27:44;;;;;;;8.30;5.20;;;;;;;22.77;57.57;99039.39;223733;181;136516;-63
2023/07/11 07:32:47;;;;;;;11.20;5.30;;;;;;;22.83;57.26;99036.96;223602;181;145612;-62
2023/07/11 07:37:51;;;;;;;9.30;5.30;;;;;;;22.88;56.71;99039.34;223727;181;140469;-62
2023/07/11 07:42:54;;;;;;;7.30;5.20;;;;;;;23.00;56.52;99039.30;223766;181;136452;-62
2023/07/11 07:47:57;;;;;;;10.50;5.70;;;;;;;23.03;56.21;99040.46;223673;181;145679;-63
2023/07/11 07:53:00;;;;;;;15.60;8.50;;;;;;;23.09;56.12;99037.27;223510;181;275935;-61
2023/07/11 08:02:09;;;;;;;20.70;15.90;;;;;;;23.17;55.25;99042.35;222010;193;677094;-63
2023/07/11 08:07:12;;;;;;;9.10;6.50;;;;;;;23.23;55.28;99034.44;223588;183;137637;-64
2023/07/11 08:12:15;;;;;;;7.10;5.20;;;;;;;23.30;54.09;99042.11;223531;182;143629;-61
2023/07/11 08:17:19;;;;;;;7.30;5.20;;;;;;;23.35;53.94;99040.44;223563;183;138026;-66
2023/07/11 08:22:22;;;;;;;7.80;5.20;;;;;;;23.41;53.53;99044.26;223548;183;136683;-68
2023/07/11 08:27:26;;;;;;;24.90;17.70;;;;;;;23.52;53.62;99043.21;223467;182;144258;-66
2023/07/11 08:32:31;;;;;;;6.80;4.90;;;;;;;23.65;52.87;99050.79;223590;183;139988;-66
2023/07/11 08:37:34;;;;;;;10.90;5.30;;;;;;;23.71;52.35;99043.68;223525;182;136273;-67
2023/07/11 08:42:41;;;;;;;17.90;6.10;;;;;;;23.80;52.60;99036.73;223721;183;143519;-70
2023/07/11 08:47:55;;;;;;;6.60;5.00;;;;;;;23.93;52.03;99040.40;223485;183;138560;-68
2023/07/11 08:53:11;;;;;;;8.80;5.20;;;;;;;24.06;51.14;99043.73;223618;183;136884;-64
2023/07/11 08:58:22;;;;;;;9.90;4.90;;;;;;;24.11;50.73;99038.67;223553;182;145543;-66
2023/07/11 09:03:32;;;;;;;7.60;5.60;;;;;;;24.18;50.81;99041.10;223530;182;138810;-67
2023/07/11 09:08:41;;;;;;;17.70;12.70;;;;;;;24.26;50.37;99032.46;223604;183;137593;-66
2023/07/11 09:13:47;;;;;;;8.30;4.90;;;;;;;24.30;50.31;99030.73;223519;183;145921;-64
2023/07/11 09:19:06;;;;;;;12.10;4.80;;;;;;;24.41;50.23;99039.46;223599;183;138310;-66
2023/07/11 09:24:31;;;;;;;42.20;8.80;;;;;;;24.59;49.94;99041.86;223696;183;137322;-69
2023/07/11 10:02:14;;;;;;;8.10;5.00;;;;;;;25.55;47.65;99050.48;219582;193;688048;-62
2023/07/11 10:07:20;;;;;;;6.90;5.30;;;;;;;25.54;47.28;99046.03;222969;185;136117;-74
2023/07/11 10:12:24;;;;;;;13.30;5.60;;;;;;;25.52;47.47;99047.14;223312;185;143171;-71
2023/07/11 10:17:35;;;;;;;9.40;4.70;;;;;;;25.67;47.59;99046.23;223487;184;138785;-72
2023/07/11 10:22:42;;;;;;;12.10;5.20;;;;;;;25.77;47.23;99048.02;223498;183;136047;-67
2023/07/11 10:27:52;;;;;;;8.50;4.20;;;;;;;26.00;46.12;99042.99;223586;183;143849;-71
2023/07/11 10:33:31;;;;;;;12.60;8.70;;;;;;;26.22;45.32;99047.16;223455;183;139186;-65
2023/07/11 10:38:57;;;;;;;88.20;71.10;;;;;;;26.15;43.51;99051.12;223706;183;136823;-67
2023/07/11 10:44:08;;;;;;;14.30;9.30;;;;;;;26.31;43.42;99041.37;223498;183;279731;-67
2023/07/11 10:49:22;;;;;;;8.00;3.40;;;;;;;26.51;43.46;99036.83;223666;183;138978;-75
2023/07/11 10:54:44;;;;;;;9.80;3.40;;;;;;;26.57;41.76;99037.34;223538;183;140609;-64
2023/07/11 11:02:37;;;;;;;17.20;4.30;;;;;;;26.96;42.36;99034.45;221596;190;678090;-64
2023/07/11 11:07:46;;;;;;;23.50;5.10;;;;;;;27.08;41.25;99033.98;223591;183;136609;-69
2023/07/11 11:13:26;;;;;;;72.00;9.10;;;;;;;26.96;40.97;99037.55;223751;183;143611;-65
2023/07/11 11:18:55;;;;;;;18.60;14.30;;;;;;;27.09;41.18;99035.84;223507;182;138439;-66
2023/07/11 11:24:22;;;;;;;8.10;6.30;;;;;;;27.33;40.48;99040.02;223579;183;137099;-64
2023/07/11 11:29:46;;;;;;;9.10;4.10;;;;;;;27.16;40.06;99042.76;223620;183;142759;-65
2023/07/11 11:35:09;;;;;;;5.70;3.90;;;;;;;27.39;40.86;99037.56;223667;182;138346;-65
2023/07/11 11:40:27;;;;;;;74.50;8.50;;;;;;;27.65;40.15;99041.38;223524;182;136348;-65
2023/07/11 11:45:32;;;;;;;11.60;3.40;;;;;;;27.58;39.12;99043.61;223730;182;144236;-65
2023/07/11 11:50:57;;;;;;;5.80;3.10;;;;;;;27.91;38.27;99034.79;223595;182;138401;-65
2023/07/11 11:56:19;;;;;;;9.30;2.80;;;;;;;28.13;37.23;99037.55;223606;182;136776;-64
2023/07/11 12:01:41;;;;;;;174.00;148.20;;;;;;;28.38;36.26;99029.16;223684;182;145994;-63
2023/07/11 12:06:45;;;;;;;11.00;6.80;;;;;;;28.73;36.70;99025.67;223696;181;138390;-64
2023/07/11 12:12:11;;;;;;;5.20;3.10;;;;;;;28.92;34.95;99027.74;223741;182;137586;-65
2023/07/11 12:17:32;;;;;;;6.50;3.20;;;;;;;28.97;34.77;99024.33;223710;181;145748;-65
2023/07/11 12:22:38;;;;;;;4.50;2.70;;;;;;;29.01;34.06;99028.08;223681;181;138401;-65
2023/07/11 12:27:58;;;;;;;4.10;3.10;;;;;;;28.71;34.75;99029.59;223713;181;136573;-64
2023/07/11 12:33:45;;;;;;;3.30;2.70;;;;;;;28.54;35.72;99028.76;223707;181;147278;-65
2023/07/11 12:39:13;;;;;;;5.80;3.30;;;;;;;28.37;35.60;99028.08;223667;181;139942;-65
2023/07/11 12:44:18;;;;;;;15.70;5.70;;;;;;;28.34;36.44;99019.27;223703;181;136126;-64
2023/07/11 12:49:26;;;;;;;;;;;;;;;28.02;37.73;99028.99;223704;181;145933;-64
2023/07/11 12:54:29;;;;;;;6.10;3.70;;;;;;;27.98;36.67;99023.73;223718;182;138955;-64
2023/07/11 13:02:06;;;;;;;67.10;59.70;;;;;;;28.73;36.42;99019.98;222372;189;676580;-63
2023/07/11 13:07:14;;;;;;;8.30;4.90;;;;;;;28.61;35.43;99020.75;223575;182;137144;-66
2023/07/11 13:12:24;;;;;;;12.20;6.40;;;;;;;28.42;36.70;99020.03;223624;183;143419;-65
2023/07/11 13:17:27;;;;;;;7.20;3.80;;;;;;;28.53;37.65;99023.11;223587;183;138791;-64
2023/07/11 13:22:30;;;;;;;11.30;3.20;;;;;;;28.79;37.41;99021.73;223647;183;138811;-63
2023/07/11 13:27:34;;;;;;;7.70;4.80;;;;;;;28.91;37.41;99024.88;223555;183;144471;-64
2023/07/11 13:32:38;;;;;;;7.60;3.40;;;;;;;28.88;38.07;99024.46;223732;183;138503;-64
2023/07/11 13:37:47;;;;;;;55.00;48.40;;;;;;;28.76;37.36;99024.07;223663;182;138338;-64
2023/07/11 14:02:17;;;;;;;5.50;2.20;;;;;;;29.23;34.22;99001.70;221543;190;665765;-64
2023/07/11 14:07:21;;;;;;;3.60;2.50;;;;;;;29.18;31.75;98997.27;223463;184;136428;-63
2023/07/11 14:12:25;;;;;;;3.60;2.50;;;;;;;28.95;32.49;99001.40;223316;185;144549;-64
2023/07/11 14:17:28;;;;;;;5.30;2.90;;;;;;;28.74;33.34;99002.79;223714;181;138312;-63
2023/07/11 14:22:31;;;;;;;2.70;2.40;;;;;;;29.06;34.30;98995.05;223642;181;136740;-63
2023/07/11 14:27:34;;;;;;;8.00;4.40;;;;;;;29.35;33.82;98990.61;223578;181;144326;-63
2023/07/11 14:32:38;;;;;;;4.60;3.60;;;;;;;29.52;33.58;98983.95;223485;181;138695;-62
2023/07/11 14:37:41;;;;;;;6.80;3.00;;;;;;;29.65;32.58;98985.93;223591;181;135994;-63
2023/07/11 14:42:46;;;;;;;5.00;2.50;;;;;;;29.61;32.49;98979.83;223654;182;257768;-63
2023/07/11 14:47:51;;;;;;;5.70;2.40;;;;;;;29.38;32.47;98986.55;223536;182;139774;-63
2023/07/11 14:52:55;;;;;;;3.40;2.50;;;;;;;29.18;32.71;98984.61;223579;181;136580;-63
2023/07/11 15:02:27;;;;;;;6.70;3.10;;;;;;;28.98;31.54;98983.64;221781;190;676696;-62
2023/07/11 15:07:31;;;;;;;25.10;20.90;;;;;;;28.85;30.98;98981.27;222922;187;136188;-63
2023/07/11 15:12:37;;;;;;;9.30;7.20;;;;;;;28.75;30.89;98986.27;223399;183;143437;-63
2023/07/11 15:17:45;;;;;;;5.00;3.30;;;;;;;28.70;31.57;98985.13;223482;181;140257;-64
2023/07/11 15:22:52;;;;;;;57.20;46.80;;;;;;;28.54;30.77;98985.58;223716;182;136374;-62
2023/07/11 15:27:59;;;;;;;6.50;5.40;;;;;;;28.37;31.09;98985.56;223614;181;143732;-64
2023/07/11 15:33:04;;;;;;;;;;;;;;;28.28;30.90;98983.84;223587;181;140151;-63
2023/07/11 15:38:18;;;;;;;4.50;2.70;;;;;;;28.24;30.91;98978.27;223579;181;128701;-63
2023/07/11 15:43:25;;;;;;;5.10;4.40;;;;;;;28.19;31.25;98978.95;223680;182;143807;-63
2023/07/11 15:48:29;;;;;;;4.90;3.60;;;;;;;28.21;31.12;98980.05;223595;182;140429;-63
2023/07/11 15:53:32;;;;;;;81.40;72.70;;;;;;;28.15;31.22;98981.73;223575;181;136899;-63
2023/07/11 15:58:35;;;;;;;5.30;4.80;;;;;;;28.14;31.95;98978.20;223465;181;146018;-64
2023/07/11 16:03:38;;;;;;;5.80;4.50;;;;;;;28.14;31.88;98974.79;223445;182;139045;-64
2023/07/11 16:08:42;;;;;;;101.80;84.00;;;;;;;28.13;31.89;98971.66;223527;182;136363;-64
2023/07/11 16:13:46;;;;;;;11.30;8.40;;;;;;;28.10;31.81;98972.46;223563;182;147049;-63
2023/07/11 16:18:49;;;;;;;6.00;3.70;;;;;;;28.09;32.06;98969.60;223536;183;138847;-63
2023/07/11 16:23:53;;;;;;;26.60;22.40;;;;;;;28.07;32.21;98968.59;223608;182;137330;-63
2023/07/11 16:28:59;;;;;;;6.40;3.80;;;;;;;28.04;32.47;98970.32;223690;182;146787;-64
2023/07/11 16:34:17;;;;;;;3.80;3.10;;;;;;;28.02;32.73;98965.81;223539;182;140325;-64
2023/07/11 16:39:38;;;;;;;5.10;3.40;;;;;;;28.01;32.41;98963.70;223630;182;136964;-63
2023/07/11 16:44:41;;;;;;;7.30;3.40;;;;;;;28.00;32.78;98957.56;223492;182;145386;-64
2023/07/11 16:49:49;;;;;;;5.10;3.60;;;;;;;27.97;32.73;98956.52;223631;182;138894;-64
2023/07/11 16:54:57;;;;;;;118.70;105.80;;;;;;;27.94;32.83;98959.02;223602;182;137027;-63
2023/07/11 17:00:01;;;;;;;10.80;6.60;;;;;;;27.95;33.08;98965.68;223576;182;281353;-63
2023/07/11 17:05:04;;;;;;;6.00;3.40;;;;;;;27.92;32.61;98963.45;223463;182;138560;-63
2023/07/11 17:10:09;;;;;;;5.10;3.00;;;;;;;27.87;31.92;98964.66;223618;182;137042;-62
2023/07/11 17:15:17;;;;;;;8.80;4.60;;;;;;;27.80;32.15;98965.87;223541;183;145955;-62
2023/07/11 17:20:24;;;;;;;16.40;12.50;;;;;;;27.75;32.74;98964.71;223587;182;138392;-63
2023/07/11 17:25:28;;;;;;;10.40;6.90;;;;;;;27.72;32.86;98965.49;223533;182;136886;-63
2023/07/11 17:30:31;;;;;;;5.10;3.90;;;;;;;27.69;32.95;98967.75;223521;182;148078;-63
2023/07/11 17:35:39;;;;;;;7.60;6.00;;;;;;;27.64;33.29;98961.64;223438;182;138704;-63
2023/07/11 17:40:45;;;;;;;8.10;4.60;;;;;;;27.59;34.09;98956.37;223506;182;136452;-65
2023/07/11 17:45:50;;;;;;;41.00;33.80;;;;;;;27.45;34.90;98957.00;223471;182;145898;-64
2023/07/11 17:51:19;;;;;;;8.30;5.70;;;;;;;27.30;35.47;98954.52;223554;178;138246;-65
2023/07/11 17:56:23;;;;;;;9.30;4.90;;;;;;;27.16;36.17;98954.26;223435;182;138098;-65
2023/07/11 18:01:26;;;;;;;7.20;4.00;;;;;;;27.02;36.96;98959.47;223479;182;145526;-65
2023/07/11 18:06:30;;;;;;;9.00;5.80;;;;;;;26.91;37.32;98960.24;223527;182;141597;-62
2023/07/11 18:11:34;;;;;;;13.40;5.50;;;;;;;26.79;37.99;98955.90;223624;182;136941;-66
2023/07/11 18:16:37;;;;;;;28.10;21.10;;;;;;;26.65;38.58;98953.80;223506;182;145186;-67
2023/07/11 18:21:40;;;;;;;38.50;33.50;;;;;;;26.54;38.98;98961.60;223492;183;138473;-66
2023/07/11 18:26:43;;;;;;;8.40;5.10;;;;;;;26.45;39.39;98965.88;223535;182;138542;-66
2023/07/11 18:31:47;;;;;;;28.60;19.80;;;;;;;26.34;40.24;98971.84;223651;182;145381;-65
2023/07/11 18:36:52;;;;;;;10.60;6.10;;;;;;;26.22;40.20;98971.62;223484;182;143384;-63
2023/07/11 18:41:56;;;;;;;7.00;4.40;;;;;;;26.05;40.54;98966.64;223346;182;137224;-64
2023/07/11 18:46:59;;;;;;;8.60;4.20;;;;;;;25.87;40.78;98973.64;223621;181;145264;-63
2023/07/11 18:52:04;;;;;;;8.60;3.80;;;;;;;25.72;41.04;98977.45;223684;182;142117;-64
2023/07/11 18:57:11;;;;;;;;;;;;;;;25.59;41.78;98981.39;223410;182;138392;-66
2023/07/11 19:02:26;;;;;;;10.90;4.00;;;;;;;25.44;43.04;98985.15;223502;182;145116;-65
2023/07/11 19:07:33;;;;;;;8.10;3.90;;;;;;;25.28;43.84;98988.95;223536;182;138472;-66
2023/07/11 19:12:36;;;;;;;9.80;4.30;;;;;;;25.14;44.06;98993.04;223618;182;136317;-66
2023/07/11 19:17:50;;;;;;;11.20;4.90;;;;;;;25.01;44.60;98993.73;223351;182;145757;-64
2023/07/11 19:22:57;;;;;;;10.20;4.20;;;;;;;24.87;45.18;98995.93;223350;183;138491;-64
2023/07/11 19:28:22;;;;;;;13.00;5.60;;;;;;;24.75;45.45;98995.25;223552;182;137359;-63
2023/07/11 19:33:25;;;;;;;10.80;5.90;;;;;;;24.63;46.19;98995.27;223527;182;145257;-63
2023/07/11 19:38:30;;;;;;;8.60;5.00;;;;;;;24.50;46.46;98988.46;223553;182;138637;-63
2023/07/11 19:43:33;;;;;;;;;;;;;;;24.36;47.08;98992.36;223388;193;137400;-64
2023/07/11 19:48:36;;;;;;;12.00;5.80;;;;;;;24.23;47.30;98988.67;223490;182;145370;-64
2023/07/11 19:53:40;;;;;;;8.10;5.60;;;;;;;24.13;47.85;98986.24;223659;182;138940;-63
2023/07/11 19:58:45;;;;;;;11.70;5.50;;;;;;;24.03;48.14;98992.48;223600;182;136446;-64
2023/07/11 20:03:50;;;;;;;12.60;5.50;;;;;;;23.91;48.60;98992.69;223255;179;146167;-64
2023/07/11 20:08:54;;;;;;;10.90;5.40;;;;;;;23.77;49.12;98989.88;223304;182;138370;-64
2023/07/11 20:13:57;;;;;;;10.10;5.40;;;;;;;23.67;49.37;98982.27;223543;182;140078;-63
2023/07/11 20:19:00;;;;;;;12.60;5.40;;;;;;;23.54;49.97;98981.23;223682;182;146378;-63
2023/07/11 20:24:04;;;;;;;15.80;5.70;;;;;;;23.44;50.60;98975.21;223350;182;140246;-63
2023/07/11 20:29:09;;;;;;;13.10;5.80;;;;;;;23.31;51.41;98971.62;223267;184;140816;-63
2023/07/11 20:34:13;;;;;;;13.50;6.10;;;;;;;23.21;52.07;98964.27;223375;183;145034;-63
2023/07/11 20:39:16;;;;;;;13.90;5.70;;;;;;;23.10;52.46;98963.52;223505;182;140132;-63
2023/07/11 20:44:19;;;;;;;8.80;4.50;;;;;;;22.98;52.94;98964.96;223410;182;137968;-62
2023/07/11 20:49:22;;;;;;;8.60;5.40;;;;;;;22.90;53.28;98962.31;223315;216;145021;-63
2023/07/11 20:54:25;;;;;;;9.70;5.20;;;;;;;22.81;53.76;98966.16;223255;183;138388;-63
2023/07/11 20:59:29;;;;;;;11.80;4.90;;;;;;;22.70;53.91;98964.05;223452;183;137877;-63
2023/07/11 21:04:32;;;;;;;9.90;4.60;;;;;;;22.60;54.27;98959.67;223517;181;145467;-63
2023/07/11 21:09:36;;;;;;;11.30;4.50;;;;;;;22.49;54.63;98954.14;223362;182;138216;-63
2023/07/11 21:14:44;;;;;;;9.40;4.40;;;;;;;22.38;55.22;98948.38;223235;182;137589;-63
2023/07/11 21:19:47;;;;;;;8.50;4.60;;;;;;;22.25;55.60;98942.23;223144;216;145221;-59
2023/07/11 21:24:51;;;;;;;7.90;4.90;;;;;;;22.13;56.31;98942.98;223420;182;139365;-63
2023/07/11 21:29:54;;;;;;;10.10;5.10;;;;;;;22.04;56.85;98934.23;223414;182;137051;-63
2023/07/11 21:34:58;;;;;;;7.60;5.10;;;;;;;21.92;57.18;98931.19;223329;182;146215;-63
2023/07/11 21:40:02;;;;;;;8.90;4.90;;;;;;;21.86;57.33;98924.86;223312;183;147886;-63
2023/07/11 21:45:10;;;;;;;8.80;5.20;;;;;;;21.78;57.85;98922.52;223292;182;142325;-63
2023/07/11 21:50:49;;;;;;;9.80;5.30;;;;;;;21.72;58.22;98920.29;223284;182;145282;-63
2023/07/11 21:56:20;;;;;;;9.50;5.90;;;;;;;21.62;58.36;98918.11;223374;183;140031;-63
2023/07/11 22:01:24;;;;;;;9.20;5.40;;;;;;;21.58;58.69;98908.27;223431;182;136497;-63
2023/07/11 22:06:30;;;;;;;13.90;6.50;;;;;;;21.51;59.04;98898.55;223424;182;145483;-63
2023/07/11 22:11:33;;;;;;;14.10;7.20;;;;;;;21.45;59.30;98901.42;223393;182;139483;-63
2023/07/11 22:16:37;;;;;;;12.00;7.30;;;;;;;21.37;59.36;98893.83;223529;182;137588;-63
2023/07/11 22:21:41;;;;;;;13.10;7.40;;;;;;;21.30;59.70;98886.92;223528;182;148391;-63
2023/07/11 22:26:47;;;;;;;15.50;6.70;;;;;;;21.21;59.98;98879.80;223503;183;138834;-63
2023/07/11 22:31:50;;;;;;;16.80;7.50;;;;;;;21.12;60.27;98879.59;223590;182;137048;-63
2023/07/11 22:36:56;;;;;;;13.30;7.80;;;;;;;21.02;60.54;98880.38;223549;182;145418;-63
2023/07/11 22:42:06;;;;;;;12.20;7.60;;;;;;;20.96;60.72;98878.17;223377;182;141139;-64
2023/07/11 22:47:09;;;;;;;;;;;;;;;20.93;60.84;98871.48;223591;183;139093;-63
2023/07/11 22:52:12;;;;;;;11.60;7.40;;;;;;;20.85;61.06;98866.48;223559;183;145930;-65
2023/07/11 22:57:15;;;;;;;11.90;7.70;;;;;;;20.79;61.27;98848.30;223587;182;138402;-64
2023/07/11 23:02:19;;;;;;;14.30;7.00;;;;;;;20.75;61.27;98844.92;223595;183;137758;-64
2023/07/11 23:07:22;;;;;;;10.30;6.80;;;;;;;20.66;61.21;98848.05;223492;183;145384;-64
2023/07/11 23:12:25;;;;;;;15.10;7.60;;;;;;;20.60;61.56;98856.14;223426;182;138395;-65
2023/07/11 23:17:28;;;;;;;9.60;7.00;;;;;;;20.50;61.85;98852.21;223527;183;136836;-65
2023/07/11 23:22:31;;;;;;;12.30;7.20;;;;;;;20.44;62.08;98850.24;223550;183;146107;-64
2023/07/11 23:27:35;;;;;;;10.40;6.40;;;;;;;20.37;62.14;98852.59;223447;183;138895;-64
2023/07/11 23:32:42;;;;;;;11.20;7.00;;;;;;;20.30;62.21;98857.41;223516;182;140042;-64
2023/07/11 23:37:47;;;;;;;10.10;6.80;;;;;;;20.22;62.43;98876.09;223553;183;147804;-64
2023/07/11 23:42:50;;;;;;;12.70;6.30;;;;;;;20.15;62.73;98901.00;223393;183;150589;-58
2023/07/11 23:47:54;;;;;;;12.40;5.90;;;;;;;20.14;63.16;98906.36;223577;183;140712;-63
2023/07/11 23:52:57;;;;;;;12.70;6.70;;;;;;;20.15;63.16;98907.34;223461;183;147071;-62
2023/07/11 23:58:00;;;;;;;10.30;6.70;;;;;;;20.18;63.10;98915.11;223413;182;138675;-64
